createdAt,value
2022-10-23T00:00:39.838Z,10
2022-10-23T00:03:39.794Z,10
2022-10-23T00:06:39.782Z,9.9
2022-10-23T00:09:39.790Z,9.9
2022-10-23T00:12:40.114Z,9.9
2022-10-23T00:15:39.866Z,9.9
2022-10-23T00:18:39.816Z,9.9
2022-10-23T00:21:39.859Z,10
2022-10-23T00:24:39.849Z,10
2022-10-23T00:27:40.059Z,10
2022-10-23T00:30:39.875Z,10.1
2022-10-23T00:33:39.881Z,10
2022-10-23T00:36:39.878Z,10
2022-10-23T00:39:39.911Z,9.9
2022-10-23T00:42:40.030Z,9.8
2022-10-23T00:45:40.148Z,9.8
2022-10-23T00:48:39.908Z,9.8
2022-10-23T00:51:39.919Z,9.8
2022-10-23T00:54:39.930Z,9.9
2022-10-23T00:57:39.972Z,10
2022-10-23T01:00:39.961Z,10.1
2022-10-23T01:03:39.963Z,10.1
2022-10-23T01:06:39.973Z,10.2
2022-10-23T01:09:39.991Z,10.2
2022-10-23T01:12:40.002Z,10.3
2022-10-23T01:15:40.050Z,10.3
2022-10-23T01:18:40.041Z,10.2
2022-10-23T01:21:40.046Z,10.2
2022-10-23T01:24:40.054Z,10.2
2022-10-23T01:27:40.061Z,10.2
2022-10-23T01:33:40.104Z,10.1
2022-10-23T01:36:40.088Z,10.1
2022-10-23T01:39:40.103Z,10.1
2022-10-23T01:42:40.247Z,10
2022-10-23T01:45:40.124Z,10
2022-10-23T01:48:40.147Z,10
2022-10-23T01:51:40.183Z,10
2022-10-23T01:54:40.164Z,10
2022-10-23T01:57:40.309Z,9.9
2022-10-23T02:00:40.184Z,9.9
2022-10-23T02:03:40.197Z,10
2022-10-23T02:06:40.210Z,9.9
2022-10-23T02:09:40.278Z,9.9
2022-10-23T02:12:40.240Z,9.9
2022-10-23T02:15:40.247Z,9.9
2022-10-23T02:18:40.256Z,9.8
2022-10-23T02:21:40.271Z,9.7
2022-10-23T02:24:40.279Z,9.7
2022-10-23T02:27:40.318Z,9.5
2022-10-23T02:30:40.298Z,9.4
2022-10-23T02:33:40.318Z,9.2
2022-10-23T02:36:40.328Z,9.2
2022-10-23T02:39:40.339Z,9
2022-10-23T02:42:40.371Z,8.9
2022-10-23T02:48:40.384Z,8.8
2022-10-23T02:51:40.391Z,8.7
2022-10-23T02:54:40.403Z,8.6
2022-10-23T02:57:40.681Z,8.6
2022-10-23T03:00:40.425Z,8.6
2022-10-23T03:03:40.461Z,8.6
2022-10-23T03:06:40.451Z,8.7
2022-10-23T03:09:40.465Z,8.7
2022-10-23T03:12:40.593Z,8.7
2022-10-23T03:15:40.493Z,8.7
2022-10-23T03:18:40.503Z,8.8
2022-10-23T03:21:40.532Z,8.9
2022-10-23T03:24:40.524Z,8.9
2022-10-23T03:27:40.540Z,8.8
2022-10-23T03:30:40.557Z,8.8
2022-10-23T03:33:40.583Z,8.8
2022-10-23T03:36:40.574Z,8.8
2022-10-23T03:39:40.618Z,8.8
2022-10-23T03:42:40.607Z,8.8
2022-10-23T03:45:40.620Z,8.8
2022-10-23T03:48:40.636Z,8.8
2022-10-23T03:51:40.645Z,8.7
2022-10-23T03:54:40.657Z,8.7
2022-10-23T03:57:40.689Z,8.7
2022-10-23T04:00:40.727Z,8.7
2022-10-23T04:03:40.692Z,8.7
2022-10-23T04:06:40.710Z,8.7
2022-10-23T04:09:40.722Z,8.7
2022-10-23T04:12:40.937Z,8.6
2022-10-23T04:15:40.770Z,8.5
2022-10-23T04:18:40.762Z,8.4
2022-10-23T04:21:40.772Z,8.5
2022-10-23T04:24:40.788Z,8.4
2022-10-23T04:27:41.122Z,8.3
2022-10-23T04:30:40.817Z,8.1
2022-10-23T04:33:40.849Z,8
2022-10-23T04:36:40.841Z,7.9
2022-10-23T04:39:40.847Z,7.9
2022-10-23T04:42:41.067Z,7.9
2022-10-23T04:45:40.863Z,7.9
2022-10-23T04:48:40.872Z,7.9
2022-10-23T04:51:40.896Z,7.8
2022-10-23T04:54:40.876Z,7.7
2022-10-23T04:57:40.875Z,7.8
2022-10-23T05:00:40.924Z,7.8
2022-10-23T05:03:40.884Z,7.8
2022-10-23T05:06:40.893Z,7.7
2022-10-23T05:09:40.905Z,7.7
2022-10-23T05:12:40.894Z,7.6
2022-10-23T05:15:40.919Z,7.5
2022-10-23T05:18:40.895Z,7.5
2022-10-23T05:21:40.902Z,7.4
2022-10-23T05:24:40.899Z,7.3
2022-10-23T05:27:41.181Z,7.3
2022-10-23T05:30:40.904Z,7.3
2022-10-23T05:33:40.907Z,7.3
2022-10-23T05:36:40.908Z,7.3
2022-10-23T05:39:40.908Z,7.3
2022-10-23T05:42:41.592Z,7.3
2022-10-23T05:45:40.933Z,7.3
2022-10-23T05:48:40.910Z,7.4
2022-10-23T05:51:40.913Z,7.4
2022-10-23T05:54:40.918Z,7.5
2022-10-23T05:57:41.164Z,7.5
2022-10-23T06:00:40.921Z,7.5
2022-10-23T06:03:40.948Z,7.5
2022-10-23T06:06:40.920Z,7.5
2022-10-23T06:09:40.924Z,7.5
2022-10-23T06:12:40.928Z,7.6
2022-10-23T06:15:40.936Z,7.7
2022-10-23T06:18:40.932Z,7.7
2022-10-23T06:21:40.963Z,7.8
2022-10-23T06:24:40.934Z,7.9
2022-10-23T06:27:40.936Z,8
2022-10-23T06:30:40.960Z,8.1
2022-10-23T06:33:40.938Z,8.1
2022-10-23T06:36:40.940Z,8.3
2022-10-23T06:39:40.972Z,8.3
2022-10-23T06:42:41.253Z,8.4
2022-10-23T06:45:40.946Z,8.5
2022-10-23T06:48:40.953Z,8.7
2022-10-23T06:51:40.958Z,8.8
2022-10-23T06:54:40.957Z,8.9
2022-10-23T06:57:41.278Z,9.1
2022-10-23T07:00:40.994Z,9.2
2022-10-23T07:03:40.963Z,9.3
2022-10-23T07:06:40.961Z,9.4
2022-10-23T07:09:40.968Z,9.5
2022-10-23T07:12:41.094Z,9.7
2022-10-23T07:15:41.000Z,9.9
2022-10-23T07:18:40.974Z,10
2022-10-23T07:21:40.976Z,10.1
2022-10-23T07:24:40.977Z,10.3
2022-10-23T07:27:41.197Z,10.4
2022-10-23T07:30:40.984Z,10.5
2022-10-23T07:33:41.014Z,10.6
2022-10-23T07:36:40.986Z,10.7
2022-10-23T07:39:40.986Z,10.9
2022-10-23T07:42:40.992Z,11.1
2022-10-23T07:45:40.993Z,11.3
2022-10-23T07:48:40.995Z,11.6
2022-10-23T07:51:41.018Z,11.8
2022-10-23T07:54:40.998Z,11.8
2022-10-23T07:57:41.004Z,11.8
2022-10-23T08:00:41.008Z,11.9
2022-10-23T08:03:41.004Z,12
2022-10-23T08:06:41.007Z,12
2022-10-23T08:09:41.033Z,12.2
2022-10-23T08:12:41.375Z,12.2
2022-10-23T08:15:41.008Z,12.3
2022-10-23T08:18:41.015Z,12.2
2022-10-23T08:21:41.017Z,12.2
2022-10-23T08:24:41.020Z,12.1
2022-10-23T08:27:41.148Z,12.1
2022-10-23T08:30:41.020Z,12.1
2022-10-23T08:33:41.073Z,12.2
2022-10-23T08:36:41.025Z,12.2
2022-10-23T08:39:41.021Z,12.3
2022-10-23T08:42:41.254Z,12.3
2022-10-23T08:45:41.054Z,12.4
2022-10-23T08:48:41.034Z,12.5
2022-10-23T08:51:41.025Z,12.6
2022-10-23T08:54:41.036Z,12.6
2022-10-23T08:57:41.480Z,12.7
2022-10-23T09:00:41.069Z,12.8
2022-10-23T09:03:41.054Z,12.9
2022-10-23T09:06:41.037Z,13
2022-10-23T09:09:41.059Z,13
2022-10-23T09:12:41.041Z,13.1
2022-10-23T09:15:41.036Z,13.1
2022-10-23T09:18:41.043Z,13.2
2022-10-23T09:21:41.069Z,13.3
2022-10-23T09:24:41.041Z,13.3
2022-10-23T09:27:41.473Z,13.2
2022-10-23T09:30:41.052Z,13.2
2022-10-23T09:33:41.051Z,13.3
2022-10-23T09:36:41.057Z,13.4
2022-10-23T09:39:41.086Z,13.4
2022-10-23T09:42:41.064Z,13.4
2022-10-23T09:45:41.061Z,13.5
2022-10-23T09:48:41.063Z,13.6
2022-10-23T09:51:41.070Z,13.6
2022-10-23T09:54:41.074Z,13.7
2022-10-23T09:57:41.258Z,13.7
2022-10-23T10:00:41.090Z,13.8
2022-10-23T10:03:41.080Z,13.9
2022-10-23T10:09:41.085Z,14.1
2022-10-23T10:12:41.089Z,14.3
2022-10-23T10:15:41.118Z,14.2
2022-10-23T10:18:41.087Z,14.3
2022-10-23T10:21:41.083Z,14.5
2022-10-23T10:24:41.098Z,14.4
2022-10-23T10:27:41.359Z,14.2
2022-10-23T10:30:41.094Z,14.2
2022-10-23T10:33:41.127Z,14.3
2022-10-23T10:36:41.107Z,14.2
2022-10-23T10:39:41.106Z,14.1
2022-10-23T10:42:41.107Z,14.1
2022-10-23T10:45:41.122Z,14.1
2022-10-23T10:48:41.189Z,14.1
2022-10-23T10:51:41.176Z,14.1
2022-10-23T10:54:41.180Z,14
2022-10-23T10:57:41.400Z,14.1
2022-10-23T11:00:41.248Z,14.1
2022-10-23T11:03:41.194Z,14.1
2022-10-23T11:06:41.209Z,14.2
2022-10-23T11:09:41.220Z,14.2
2022-10-23T11:12:41.194Z,14.2
2022-10-23T11:15:41.252Z,14.2
2022-10-23T11:18:41.201Z,14.2
2022-10-23T11:21:41.201Z,14.2
2022-10-23T11:24:42.158Z,14.3
2022-10-23T11:27:41.516Z,14.3
2022-10-23T11:30:41.208Z,14.4
2022-10-23T11:33:42.616Z,14.5
2022-10-23T11:36:41.216Z,14.6
2022-10-23T11:39:41.223Z,14.7
2022-10-23T11:42:41.619Z,14.6
2022-10-23T11:45:41.239Z,14.6
2022-10-23T11:48:41.228Z,14.6
2022-10-23T11:51:41.222Z,14.8
2022-10-23T11:54:41.247Z,14.8
2022-10-23T11:57:41.227Z,14.7
2022-10-23T12:00:41.230Z,14.8
2022-10-23T12:03:41.266Z,14.9
2022-10-23T12:06:41.230Z,14.9
2022-10-23T12:09:41.258Z,15
2022-10-23T12:12:41.240Z,14.9
2022-10-23T12:15:41.238Z,15
2022-10-23T12:18:41.234Z,14.9
2022-10-23T12:21:41.268Z,14.7
2022-10-23T12:24:41.246Z,14.6
2022-10-23T12:27:41.499Z,14.6
2022-10-23T12:30:41.238Z,14.8
2022-10-23T12:33:41.239Z,14.8
2022-10-23T12:36:41.253Z,14.8
2022-10-23T12:39:41.281Z,14.8
2022-10-23T12:42:41.462Z,14.9
2022-10-23T12:45:41.247Z,14.8
2022-10-23T12:48:41.254Z,14.8
2022-10-23T12:51:41.251Z,14.9
2022-10-23T12:54:41.278Z,14.8
2022-10-23T12:57:41.516Z,14.6
2022-10-23T13:00:41.272Z,14.7
2022-10-23T13:03:41.267Z,14.6
2022-10-23T13:06:41.269Z,14.8
2022-10-23T13:09:41.292Z,14.7
2022-10-23T13:12:41.289Z,14.6
2022-10-23T13:15:41.310Z,14.4
2022-10-23T13:18:41.288Z,14.6
2022-10-23T13:21:41.288Z,14.6
2022-10-23T13:24:41.300Z,14.7
2022-10-23T13:27:41.603Z,14.6
2022-10-23T13:30:41.294Z,14.6
2022-10-23T13:33:41.324Z,14.6
2022-10-23T13:36:41.304Z,14.6
2022-10-23T13:39:41.317Z,14.6
2022-10-23T13:42:41.582Z,14.5
2022-10-23T13:45:41.321Z,14.5
2022-10-23T13:48:41.317Z,14.6
2022-10-23T13:51:42.499Z,14.7
2022-10-23T13:54:41.346Z,14.7
2022-10-23T13:57:41.598Z,14.7
2022-10-23T14:00:41.338Z,14.7
2022-10-23T14:03:41.347Z,14.8
2022-10-23T14:06:41.339Z,14.8
2022-10-23T14:09:41.383Z,14.8
2022-10-23T14:12:41.660Z,14.8
2022-10-23T14:15:41.357Z,14.7
2022-10-23T14:18:41.370Z,14.7
2022-10-23T14:21:41.367Z,14.6
2022-10-23T14:24:41.389Z,14.6
2022-10-23T14:27:41.402Z,14.5
2022-10-23T14:30:41.385Z,14.4
2022-10-23T14:33:41.397Z,14.3
2022-10-23T14:36:49.218Z,14.3
2022-10-23T14:39:42.654Z,14.3
2022-10-23T14:42:41.499Z,14.3
2022-10-23T14:45:41.430Z,14.3
2022-10-23T14:48:44.421Z,14.3
2022-10-23T14:51:41.417Z,14.3
2022-10-23T14:54:41.429Z,14.3
2022-10-23T14:57:41.670Z,14.2
2022-10-23T15:00:41.420Z,14.2
2022-10-23T15:03:41.449Z,14.2
2022-10-23T15:06:41.435Z,14.2
2022-10-23T15:09:41.447Z,14.2
2022-10-23T15:12:41.765Z,14.2
2022-10-23T15:15:41.450Z,14.2
2022-10-23T15:18:41.456Z,14.2
2022-10-23T15:21:41.489Z,14.2
2022-10-23T15:24:41.473Z,14.2
2022-10-23T15:27:41.645Z,14.2
2022-10-23T15:30:41.473Z,14.2
2022-10-23T15:33:41.478Z,14.2
2022-10-23T15:36:41.482Z,14.1
2022-10-23T15:39:41.527Z,14.2
2022-10-23T15:42:41.773Z,14.2
2022-10-23T15:45:41.504Z,14.1
2022-10-23T15:48:41.509Z,14.1
2022-10-23T15:51:41.517Z,14.1
2022-10-23T15:54:41.529Z,14.1
2022-10-23T15:57:41.548Z,14.1
2022-10-23T16:00:41.536Z,14.1
2022-10-23T16:03:41.532Z,14
2022-10-23T16:06:41.563Z,14
2022-10-23T16:09:41.557Z,14
2022-10-23T16:12:41.819Z,14
2022-10-23T16:15:41.585Z,14
2022-10-23T16:18:41.563Z,13.9
2022-10-23T16:21:41.572Z,13.9
2022-10-23T16:24:41.583Z,13.9
2022-10-23T16:27:41.847Z,13.9
2022-10-23T16:30:41.590Z,13.8
2022-10-23T16:33:41.617Z,13.8
2022-10-23T16:36:41.602Z,13.7
2022-10-23T16:39:41.616Z,13.7
2022-10-23T16:42:41.821Z,13.6
2022-10-23T16:45:41.624Z,13.5
2022-10-23T16:48:41.633Z,13.5
2022-10-23T16:51:41.668Z,13.5
2022-10-23T16:54:41.657Z,13.4
2022-10-23T16:57:41.663Z,13.4
2022-10-23T17:00:41.674Z,13.3
2022-10-23T17:03:41.661Z,13.3
2022-10-23T17:06:41.671Z,13.2
2022-10-23T17:09:41.739Z,13.2
2022-10-23T17:12:41.682Z,13.2
2022-10-23T17:15:41.693Z,13.2
2022-10-23T17:18:43.633Z,13.2
2022-10-23T17:21:41.711Z,13.2
2022-10-23T17:24:41.724Z,13.2
2022-10-23T17:27:41.972Z,13.1
2022-10-23T17:30:41.724Z,13.1
2022-10-23T17:33:41.730Z,13.1
2022-10-23T17:36:41.743Z,13.1
2022-10-23T17:39:41.754Z,13
2022-10-23T17:42:41.872Z,13
2022-10-23T17:45:41.784Z,13
2022-10-23T17:48:41.773Z,12.9
2022-10-23T17:51:41.772Z,12.9
2022-10-23T17:54:41.798Z,12.9
2022-10-23T17:57:41.971Z,12.9
2022-10-23T18:00:41.799Z,12.8
2022-10-23T18:03:41.837Z,12.8
2022-10-23T18:06:41.821Z,12.8
2022-10-23T18:09:41.838Z,12.8
2022-10-23T18:12:41.829Z,12.8
2022-10-23T18:15:41.840Z,12.7
2022-10-23T18:18:41.845Z,12.7
2022-10-23T18:21:41.885Z,12.7
2022-10-23T18:24:41.869Z,12.7
2022-10-23T18:27:41.865Z,12.8
2022-10-23T18:30:41.883Z,12.7
2022-10-23T18:33:41.883Z,12.8
2022-10-23T18:36:41.895Z,12.8
2022-10-23T18:39:41.940Z,12.8
2022-10-23T18:42:42.212Z,12.8
2022-10-23T18:45:41.918Z,12.8
2022-10-23T18:48:41.928Z,12.9
2022-10-23T18:51:41.942Z,12.8
2022-10-23T18:54:41.961Z,12.8
2022-10-23T18:57:42.327Z,12.9
2022-10-23T19:00:41.956Z,12.8
2022-10-23T19:03:42.033Z,12.8
2022-10-23T19:06:41.979Z,12.8
2022-10-23T19:09:41.995Z,12.8
2022-10-23T19:12:42.284Z,12.8
2022-10-23T19:15:42.031Z,12.8
2022-10-23T19:18:42.019Z,12.8
2022-10-23T19:21:42.024Z,12.8
2022-10-23T19:24:42.045Z,12.8
2022-10-23T19:27:42.042Z,12.9
2022-10-23T19:30:42.059Z,12.9
2022-10-23T19:33:42.087Z,12.9
2022-10-23T19:36:42.068Z,12.9
2022-10-23T19:39:42.201Z,12.9
2022-10-23T19:42:42.091Z,12.9
2022-10-23T19:45:42.096Z,12.9
2022-10-23T19:48:42.121Z,13
2022-10-23T19:51:42.145Z,13
2022-10-23T19:54:42.140Z,13
2022-10-23T19:57:42.396Z,13
2022-10-23T20:00:42.151Z,13
2022-10-23T20:03:42.160Z,13.1
2022-10-23T20:06:42.168Z,13.1
2022-10-23T20:09:42.219Z,13.1
2022-10-23T20:12:44.529Z,13.1
2022-10-23T20:15:42.207Z,13.2
2022-10-23T20:18:42.219Z,13.1
2022-10-23T20:21:42.227Z,13.1
2022-10-23T20:24:42.239Z,13.2
2022-10-23T20:27:42.289Z,13.2
2022-10-23T20:30:42.265Z,13.2
2022-10-23T20:33:42.273Z,13.2
2022-10-23T20:36:43.739Z,13.2
2022-10-23T20:39:42.302Z,13.2
2022-10-23T20:42:42.300Z,13.2
2022-10-23T20:45:42.338Z,13.2
2022-10-23T20:48:42.321Z,13.2
2022-10-23T20:51:42.344Z,13.2
2022-10-23T20:54:42.369Z,13.2
2022-10-23T20:57:42.590Z,13.2
2022-10-23T21:00:42.407Z,13.2
2022-10-23T21:03:42.412Z,13.2
2022-10-23T21:06:57.582Z,13.2
2022-10-23T21:09:42.435Z,13.2
2022-10-23T21:12:42.612Z,13.2
2022-10-23T21:15:42.427Z,13.3
2022-10-23T21:18:45.800Z,13.2
2022-10-23T21:21:42.483Z,13.2
2022-10-23T21:24:42.477Z,13.2
2022-10-23T21:27:42.820Z,13.2
2022-10-23T21:30:42.498Z,13.2
2022-10-23T21:33:42.514Z,13.2
2022-10-23T21:36:54.019Z,13.2
2022-10-23T21:39:42.623Z,13.2
2022-10-23T21:42:42.546Z,13.2
2022-10-23T21:45:42.560Z,13.2
2022-10-23T21:48:42.581Z,13.2
2022-10-23T21:51:42.592Z,13.1
2022-10-23T21:54:42.617Z,13.1
2022-10-23T21:57:42.638Z,13.1
2022-10-23T22:00:42.642Z,13.1
2022-10-23T22:03:42.653Z,13.1
2022-10-23T22:06:42.654Z,13
2022-10-23T22:09:42.674Z,13
2022-10-23T22:12:42.681Z,13
2022-10-23T22:15:42.720Z,13
2022-10-23T22:18:42.706Z,12.9
2022-10-23T22:21:42.701Z,12.9
2022-10-23T22:24:42.715Z,12.9
2022-10-23T22:27:43.004Z,12.9
2022-10-23T22:30:42.706Z,12.9
2022-10-23T22:33:42.743Z,12.8
2022-10-23T22:36:42.711Z,12.7
2022-10-23T22:39:42.728Z,12.6
2022-10-23T22:42:42.977Z,12.6
2022-10-23T22:45:42.723Z,12.6
2022-10-23T22:48:42.717Z,12.6
2022-10-23T22:51:42.749Z,12.6
2022-10-23T22:54:42.737Z,12.6
2022-10-23T22:57:43.042Z,12.5
2022-10-23T23:00:43.516Z,12.5
2022-10-23T23:03:42.731Z,12.4
2022-10-23T23:06:42.730Z,12.3
2022-10-23T23:09:42.766Z,12.2
2022-10-23T23:12:42.737Z,12.2
2022-10-23T23:15:42.741Z,12.2
2022-10-23T23:18:42.730Z,12.2
2022-10-23T23:21:42.738Z,12.1
2022-10-23T23:24:42.750Z,12
2022-10-23T23:27:42.765Z,11.9
2022-10-23T23:30:42.808Z,12
2022-10-23T23:33:42.746Z,12.1
2022-10-23T23:36:42.743Z,12.2
2022-10-23T23:39:42.753Z,12.3
2022-10-23T23:42:43.042Z,12.3
2022-10-23T23:45:42.775Z,12.3
2022-10-23T23:48:42.748Z,12.2
2022-10-23T23:51:42.748Z,12.2
2022-10-23T23:54:42.765Z,12.1
2022-10-23T23:57:43.124Z,12
